createdAt,value
2022-08-07T00:00:28.026Z,28.61
2022-08-07T00:03:09.407Z,28.60
2022-08-07T00:05:38.082Z,28.62
2022-08-07T00:08:07.816Z,28.64
2022-08-07T00:10:47.973Z,28.65
2022-08-07T00:13:25.750Z,28.67
2022-08-07T00:15:55.261Z,28.67
2022-08-07T00:18:28.526Z,28.67
2022-08-07T00:21:07.970Z,28.67
2022-08-07T00:23:40.174Z,28.60
2022-08-07T00:26:18.723Z,28.57
2022-08-07T00:28:59.378Z,28.54
2022-08-07T00:31:38.427Z,28.55
2022-08-07T00:34:09.942Z,28.56
2022-08-07T00:36:42.689Z,28.56
2022-08-07T00:39:16.486Z,28.51
2022-08-07T00:42:01.988Z,28.49
2022-08-07T00:44:38.354Z,28.30
2022-08-07T00:47:16.185Z,28.22
2022-08-07T00:50:19.653Z,28.17
2022-08-07T00:52:47.405Z,28.16
2022-08-07T00:55:17.381Z,28.03
2022-08-07T00:57:55.917Z,27.86
2022-08-07T01:00:24.913Z,27.75
2022-08-07T01:02:53.829Z,27.76
2022-08-07T01:05:24.686Z,27.80
2022-08-07T01:07:52.716Z,27.74
2022-08-07T01:10:23.374Z,27.76
2022-08-07T01:12:54.717Z,27.75
2022-08-07T01:16:01.284Z,27.71
2022-08-07T01:18:17.088Z,27.71
2022-08-07T01:20:59.437Z,27.70
2022-08-07T01:23:36.853Z,27.65
2022-08-07T01:26:16.751Z,27.60
2022-08-07T01:28:50.553Z,27.39
2022-08-07T01:31:42.340Z,27.17
2022-08-07T01:34:14.340Z,27.17
2022-08-07T01:36:44.095Z,27.23
2022-08-07T01:39:18.455Z,27.33
2022-08-07T01:42:36.742Z,27.40
2022-08-07T01:44:43.037Z,27.49
2022-08-07T01:48:16.835Z,27.56
2022-08-07T01:50:06.282Z,27.59
2022-08-07T01:52:34.717Z,27.63
2022-08-07T01:55:04.708Z,27.62
2022-08-07T01:58:05.728Z,27.51
2022-08-07T02:00:32.031Z,27.45
2022-08-07T02:03:19.222Z,27.44
2022-08-07T02:06:02.559Z,27.38
2022-08-07T02:08:54.361Z,27.38
2022-08-07T02:11:31.011Z,27.37
2022-08-07T02:14:40.432Z,27.35
2022-08-07T02:17:06.069Z,27.29
2022-08-07T02:20:04.739Z,27.29
2022-08-07T02:22:26.200Z,27.32
2022-08-07T02:24:57.663Z,27.35
2022-08-07T02:27:30.152Z,27.35
2022-08-07T02:30:07.361Z,27.35
2022-08-07T02:32:38.699Z,27.33
2022-08-07T02:35:11.511Z,27.34
2022-08-07T02:37:51.249Z,27.32
2022-08-07T02:40:34.965Z,27.32
2022-08-07T02:43:07.802Z,27.26
2022-08-07T02:46:00.219Z,27.15
2022-08-07T02:48:32.313Z,27.10
2022-08-07T02:51:41.948Z,27.07
2022-08-07T02:54:09.330Z,26.99
2022-08-07T02:56:40.837Z,26.92
2022-08-07T02:59:14.964Z,26.77
2022-08-07T03:01:47.197Z,26.67
2022-08-07T03:04:23.181Z,26.54
2022-08-07T03:06:54.013Z,26.20
2022-08-07T03:09:44.697Z,26.12
2022-08-07T03:12:21.638Z,26.08
2022-08-07T03:14:52.686Z,25.93
2022-08-07T03:17:22.173Z,25.83
2022-08-07T03:19:55.639Z,25.80
2022-08-07T03:22:30.399Z,25.84
2022-08-07T03:25:00.847Z,25.75
2022-08-07T03:27:59.745Z,25.72
2022-08-07T03:30:24.896Z,25.68
2022-08-07T03:32:58.655Z,25.66
2022-08-07T03:35:43.727Z,25.62
2022-08-07T03:38:21.048Z,25.49
2022-08-07T03:40:57.052Z,25.35
2022-08-07T03:43:32.414Z,25.34
2022-08-07T03:46:10.498Z,25.30
2022-08-07T03:49:03.005Z,25.17
2022-08-07T03:52:00.945Z,25.24
2022-08-07T03:54:35.445Z,25.16
2022-08-07T03:58:32.409Z,25.19
2022-08-07T04:00:11.525Z,25.29
2022-08-07T04:02:51.972Z,25.37
2022-08-07T04:05:40.901Z,25.48
2022-08-07T04:08:18.711Z,25.50
2022-08-07T04:10:54.832Z,25.40
2022-08-07T04:14:10.248Z,25.41
2022-08-07T04:16:31.473Z,25.42
2022-08-07T04:19:15.009Z,25.49
2022-08-07T04:22:05.373Z,25.54
2022-08-07T04:24:41.816Z,25.53
2022-08-07T04:27:15.224Z,25.52
2022-08-07T04:30:02.152Z,25.52
2022-08-07T04:33:09.409Z,25.54
2022-08-07T04:35:40.756Z,25.54
2022-08-07T04:38:15.631Z,25.49
2022-08-07T04:40:52.439Z,25.32
2022-08-07T04:44:09.965Z,25.18
2022-08-07T04:47:04.261Z,25.13
2022-08-07T04:49:57.902Z,25.11
2022-08-07T04:53:03.460Z,25.08
2022-08-07T04:58:16.756Z,25.14
2022-08-07T04:59:18.388Z,25.19
2022-08-07T05:02:16.819Z,25.12
2022-08-07T05:05:52.764Z,24.91
2022-08-07T05:08:59.349Z,24.80
2022-08-07T05:11:24.262Z,24.87
2022-08-07T05:14:53.407Z,24.89
2022-08-07T05:17:00.661Z,24.92
2022-08-07T05:19:44.273Z,24.80
2022-08-07T05:22:27.586Z,24.85
2022-08-07T05:25:00.661Z,24.92
2022-08-07T05:28:15.658Z,24.94
2022-08-07T05:30:32.448Z,24.94
2022-08-07T05:33:05.239Z,24.98
2022-08-07T05:35:41.823Z,25.10
2022-08-07T05:38:12.858Z,25.19
2022-08-07T05:41:02.802Z,25.23
2022-08-07T05:44:01.179Z,25.23
2022-08-07T05:46:30.714Z,25.17
2022-08-07T05:49:00.518Z,25.14
2022-08-07T05:51:46.522Z,25.25
2022-08-07T05:54:31.178Z,25.25
2022-08-07T05:57:08.238Z,25.22
2022-08-07T05:59:57.506Z,25.17
2022-08-07T06:02:33.091Z,25.18
2022-08-07T06:05:10.775Z,25.26
2022-08-07T06:08:29.144Z,25.38
2022-08-07T06:10:31.554Z,25.50
2022-08-07T06:13:02.228Z,25.51
2022-08-07T06:15:39.518Z,25.57
2022-08-07T06:18:15.889Z,25.66
2022-08-07T06:20:50.436Z,25.58
2022-08-07T06:24:36.931Z,25.52
2022-08-07T06:26:27.413Z,25.57
2022-08-07T06:29:01.450Z,25.49
2022-08-07T06:31:46.888Z,25.44
2022-08-07T06:34:20.594Z,25.53
2022-08-07T06:36:52.128Z,25.65
2022-08-07T06:40:18.023Z,25.78
2022-08-07T06:42:37.278Z,25.92
2022-08-07T06:45:19.329Z,25.92
2022-08-07T06:47:58.838Z,25.96
2022-08-07T06:50:36.460Z,26.00
2022-08-07T06:54:11.757Z,25.95
2022-08-07T06:56:01.414Z,25.97
2022-08-07T06:58:36.486Z,26.02
2022-08-07T07:01:14.301Z,26.10
2022-08-07T07:03:49.879Z,26.19
2022-08-07T07:06:26.431Z,26.18
2022-08-07T07:08:56.844Z,26.18
2022-08-07T07:12:09.131Z,26.24
2022-08-07T07:14:16.496Z,26.33
2022-08-07T07:16:50.554Z,26.39
2022-08-07T07:19:57.358Z,26.35
2022-08-07T07:22:36.380Z,26.37
2022-08-07T07:26:35.138Z,26.42
2022-08-07T07:28:29.779Z,26.44
2022-08-07T07:31:23.784Z,26.48
2022-08-07T07:33:59.038Z,26.46
2022-08-07T07:36:32.170Z,26.44
2022-08-07T07:39:02.653Z,26.52
2022-08-07T07:41:50.688Z,26.60
2022-08-07T07:44:27.713Z,26.63
2022-08-07T07:47:11.920Z,26.70
2022-08-07T07:50:33.755Z,26.77
2022-08-07T07:52:36.147Z,26.79
2022-08-07T07:55:06.381Z,26.81
2022-08-07T07:57:51.901Z,26.77
2022-08-07T08:00:29.675Z,26.76
2022-08-07T08:03:16.579Z,26.80
2022-08-07T08:05:55.163Z,26.83
2022-08-07T08:08:36.974Z,26.81
2022-08-07T08:11:16.236Z,26.77
2022-08-07T08:13:53.848Z,26.57
2022-08-07T08:16:35.261Z,26.52
2022-08-07T08:19:17.769Z,26.47
2022-08-07T08:22:15.944Z,26.45
2022-08-07T08:25:24.746Z,26.53
2022-08-07T08:28:03.732Z,26.61
2022-08-07T08:30:34.630Z,26.75
2022-08-07T08:33:10.383Z,26.78
2022-08-07T08:35:49.657Z,26.91
2022-08-07T08:38:25.892Z,27.05
2022-08-07T08:41:58.262Z,27.13
2022-08-07T08:44:58.211Z,27.18
2022-08-07T08:47:47.206Z,27.18
2022-08-07T08:50:39.958Z,27.19
2022-08-07T08:53:35.105Z,27.28
2022-08-07T08:56:30.795Z,27.35
2022-08-07T08:59:23.962Z,27.39
2022-08-07T09:02:14.834Z,27.39
2022-08-07T09:05:14.687Z,27.50
2022-08-07T09:08:24.413Z,27.47
2022-08-07T09:11:24.351Z,27.38
2022-08-07T09:14:30.437Z,27.39
2022-08-07T09:17:58.957Z,27.41
2022-08-07T09:21:13.952Z,27.40
2022-08-07T09:24:58.566Z,27.55
2022-08-07T09:27:59.641Z,27.57
2022-08-07T09:33:59.678Z,27.68
2022-08-07T09:36:51.597Z,27.79
2022-08-07T09:39:53.867Z,27.87
2022-08-07T09:42:51.587Z,27.81
2022-08-07T09:47:24.151Z,27.84
2022-08-07T09:50:01.949Z,27.93
2022-08-07T09:52:16.462Z,27.97
2022-08-07T09:55:16.975Z,27.99
2022-08-07T09:58:32.168Z,28.07
2022-08-07T10:01:53.774Z,28.17
2022-08-07T10:04:45.906Z,28.19
2022-08-07T10:07:52.611Z,28.25
2022-08-07T10:11:59.657Z,28.29
2022-08-07T10:14:04.200Z,28.21
2022-08-07T10:16:41.766Z,28.24
2022-08-07T10:19:41.093Z,28.25
2022-08-07T10:22:56.042Z,28.38
2022-08-07T10:26:00.610Z,28.56
2022-08-07T10:29:02.902Z,28.64
2022-08-07T10:32:37.100Z,28.71
2022-08-07T10:35:25.729Z,28.55
2022-08-07T10:38:48.660Z,28.60
2022-08-07T10:41:51.839Z,28.70
2022-08-07T10:44:51.876Z,28.84
2022-08-07T10:48:03.351Z,28.94
2022-08-07T10:50:31.355Z,29.04
2022-08-07T10:53:43.907Z,29.13
2022-08-07T10:56:49.387Z,29.25
2022-08-07T10:59:38.422Z,29.41
2022-08-07T11:02:33.074Z,29.39
2022-08-07T11:05:49.245Z,29.36
2022-08-07T11:08:52.989Z,29.51
2022-08-07T11:11:37.575Z,29.62
2022-08-07T11:14:46.299Z,29.80
2022-08-07T11:17:23.184Z,29.86
2022-08-07T11:20:31.268Z,30.02
2022-08-07T11:23:07.299Z,30.05
2022-08-07T11:25:50.158Z,30.07
2022-08-07T11:28:34.253Z,30.02
2022-08-07T11:31:35.052Z,30.01
2022-08-07T11:34:28.838Z,30.06
2022-08-07T11:38:09.984Z,30.03
2022-08-07T11:40:56.527Z,30.10
2022-08-07T11:43:41.183Z,30.13
2022-08-07T11:47:10.006Z,30.25
2022-08-07T11:50:31.509Z,30.32
2022-08-07T11:53:27.951Z,30.41
2022-08-07T11:56:28.380Z,30.57
2022-08-07T12:00:08.047Z,30.70
2022-08-07T12:02:57.819Z,30.78
2022-08-07T12:05:58.347Z,30.87
2022-08-07T12:08:52.532Z,31.01
2022-08-07T12:11:32.777Z,31.10
2022-08-07T12:14:20.747Z,31.14
2022-08-07T12:17:08.734Z,31.29
2022-08-07T12:20:30.677Z,31.36
2022-08-07T12:23:37.221Z,31.46
2022-08-07T12:26:47.007Z,31.39
2022-08-07T12:29:38.235Z,31.45
2022-08-07T12:32:38.128Z,31.49
2022-08-07T12:35:12.558Z,31.62
2022-08-07T12:38:09.450Z,31.82
2022-08-07T12:40:50.866Z,31.95
2022-08-07T12:44:03.769Z,32.04
2022-08-07T12:46:54.557Z,32.19
2022-08-07T12:50:04.660Z,32.46
2022-08-07T12:53:05.261Z,32.67
2022-08-07T12:56:10.111Z,32.79
2022-08-07T12:58:46.876Z,32.96
2022-08-07T13:01:42.980Z,33.14
2022-08-07T13:05:01.124Z,33.27
2022-08-07T13:08:19.295Z,33.45
2022-08-07T13:11:18.342Z,33.41
2022-08-07T13:14:31.921Z,33.46
2022-08-07T13:17:13.208Z,33.45
2022-08-07T13:20:16.019Z,33.61
2022-08-07T13:22:57.599Z,33.75
2022-08-07T13:25:39.272Z,33.79
2022-08-07T13:28:30.034Z,33.79
2022-08-07T13:31:19.580Z,33.81
2022-08-07T13:34:35.453Z,33.78
2022-08-07T13:37:20.315Z,33.85
2022-08-07T13:40:35.913Z,33.88
2022-08-07T13:43:15.039Z,33.99
2022-08-07T13:46:11.977Z,33.99
2022-08-07T13:48:39.727Z,33.94
2022-08-07T13:51:28.553Z,33.95
2022-08-07T13:54:02.012Z,34.04
2022-08-07T13:56:41.219Z,34.06
2022-08-07T13:59:32.877Z,34.11
2022-08-07T14:02:12.966Z,34.25
2022-08-07T14:04:54.717Z,34.41
2022-08-07T14:07:33.924Z,34.55
2022-08-07T14:10:17.808Z,34.65
2022-08-07T14:13:00.791Z,34.73
2022-08-07T14:15:44.593Z,34.82
2022-08-07T14:18:44.958Z,34.89
2022-08-07T14:22:01.771Z,34.91
2022-08-07T14:24:33.431Z,34.96
2022-08-07T14:28:09.507Z,35.01
2022-08-07T14:30:05.596Z,35.07
2022-08-07T14:32:48.146Z,34.98
2022-08-07T14:35:44.499Z,34.99
2022-08-07T14:38:26.509Z,35.01
2022-08-07T14:41:04.122Z,35.16
2022-08-07T14:43:58.525Z,35.27
2022-08-07T14:46:31.987Z,35.39
2022-08-07T14:49:56.003Z,35.54
2022-08-07T14:52:04.700Z,35.76
2022-08-07T14:54:42.008Z,35.99
2022-08-07T14:57:14.463Z,36.13
2022-08-07T15:00:04.396Z,36.28
2022-08-07T15:02:39.194Z,36.41
2022-08-07T15:07:59.112Z,36.53
2022-08-07T15:13:25.392Z,36.56
2022-08-07T15:16:02.744Z,36.38
2022-08-07T15:18:41.580Z,36.26
2022-08-07T15:21:54.067Z,36.34
2022-08-07T15:25:14.054Z,36.32
2022-08-07T15:27:23.103Z,36.18
2022-08-07T15:30:09.274Z,36.03
2022-08-07T15:33:01.202Z,36.04
2022-08-07T15:35:40.719Z,36.09
2022-08-07T15:38:51.697Z,36.13
2022-08-07T15:44:18.146Z,36.56
2022-08-07T15:46:55.884Z,36.75
2022-08-07T15:50:04.362Z,36.99
2022-08-07T15:52:30.297Z,37.06
2022-08-07T15:55:03.827Z,36.93
2022-08-07T15:57:47.893Z,36.82
2022-08-07T16:00:31.580Z,36.90
2022-08-07T16:03:21.653Z,37.07
2022-08-07T16:06:09.591Z,37.28
2022-08-07T16:08:45.606Z,37.54
2022-08-07T16:11:39.892Z,37.93
2022-08-07T16:14:30.319Z,37.94
2022-08-07T16:18:01.697Z,37.93
2022-08-07T16:22:03.061Z,37.96
2022-08-07T16:24:34.394Z,37.90
2022-08-07T16:27:40.663Z,37.81
2022-08-07T16:30:32.005Z,37.73
2022-08-07T16:34:03.323Z,37.58
2022-08-07T16:36:31.446Z,37.29
2022-08-07T16:39:40.357Z,37.09
2022-08-07T16:42:25.321Z,36.81
2022-08-07T16:45:15.634Z,36.70
2022-08-07T16:48:27.840Z,36.62
2022-08-07T16:51:54.668Z,36.67
2022-08-07T16:55:08.223Z,36.61
2022-08-07T16:58:19.178Z,36.54
2022-08-07T17:01:41.246Z,36.31
2022-08-07T17:04:24.730Z,35.93
2022-08-07T17:07:18.650Z,35.90
2022-08-07T17:10:09.191Z,35.67
2022-08-07T17:13:41.629Z,35.52
2022-08-07T17:16:22.117Z,35.33
2022-08-07T17:18:53.615Z,35.06
2022-08-07T17:21:51.321Z,34.76
2022-08-07T17:24:55.151Z,34.45
2022-08-07T17:27:32.824Z,34.11
2022-08-07T17:30:16.160Z,33.75
2022-08-07T17:34:10.162Z,33.46
2022-08-07T17:36:21.066Z,33.09
2022-08-07T17:39:19.786Z,32.88
2022-08-07T17:42:06.572Z,32.66
2022-08-07T17:44:58.554Z,32.51
2022-08-07T17:47:54.007Z,32.34
2022-08-07T17:50:42.489Z,32.16
2022-08-07T17:54:00.208Z,31.97
2022-08-07T17:56:49.637Z,31.82
2022-08-07T17:59:36.224Z,31.67
2022-08-07T18:02:15.790Z,31.57
2022-08-07T18:05:10.555Z,31.42
2022-08-07T18:08:15.492Z,31.31
2022-08-07T18:12:16.092Z,31.13
2022-08-07T18:14:24.220Z,31.03
2022-08-07T18:17:05.680Z,30.94
2022-08-07T18:30:31.596Z,30.62
2022-08-07T18:33:38.923Z,30.67
2022-08-07T18:36:43.905Z,30.62
2022-08-07T18:40:08.225Z,30.61
2022-08-07T18:42:57.710Z,30.58
2022-08-07T18:46:22.357Z,30.47
2022-08-07T18:50:31.818Z,30.46
2022-08-07T18:52:53.171Z,30.45
2022-08-07T18:55:43.345Z,30.32
2022-08-07T18:58:38.314Z,30.34
2022-08-07T19:02:17.517Z,30.36
2022-08-07T19:04:17.228Z,30.30
2022-08-07T19:07:09.732Z,30.28
2022-08-07T19:10:14.842Z,30.17
2022-08-07T19:13:10.053Z,30.12
2022-08-07T19:16:03.516Z,30.01
2022-08-07T19:19:19.766Z,29.94
2022-08-07T19:22:05.186Z,29.76
2022-08-07T19:24:44.507Z,29.61
2022-08-07T19:28:56.893Z,29.56
2022-08-07T19:30:57.101Z,29.62
2022-08-07T19:33:13.231Z,29.53
2022-08-07T19:35:51.792Z,29.50
2022-08-07T19:38:21.679Z,29.41
2022-08-07T19:40:55.422Z,29.28
2022-08-07T19:43:48.680Z,29.26
2022-08-07T19:46:26.311Z,29.16
2022-08-07T19:49:12.876Z,29.19
2022-08-07T19:51:50.687Z,29.17
2022-08-07T19:54:31.421Z,29.12
2022-08-07T19:58:01.694Z,29.05
2022-08-07T20:00:10.112Z,29.02
2022-08-07T20:02:51.863Z,29.03
2022-08-07T20:05:30.131Z,28.98
2022-08-07T20:08:03.611Z,28.99
2022-08-07T20:10:52.047Z,29.02
2022-08-07T20:13:34.417Z,29.06
2022-08-07T20:16:04.712Z,29.09
2022-08-07T20:18:34.480Z,29.10
2022-08-07T20:21:22.067Z,29.13
2022-08-07T20:24:00.297Z,29.09
2022-08-07T20:26:45.284Z,29.08
2022-08-07T20:29:48.966Z,29.04
2022-08-07T20:32:23.128Z,29.02
2022-08-07T20:34:58.539Z,29.00
2022-08-07T20:37:46.957Z,29.02
2022-08-07T20:40:33.250Z,29.00
2022-08-07T20:43:06.103Z,28.99
2022-08-07T20:46:26.208Z,28.96
2022-08-07T20:48:38.731Z,28.87
2022-08-07T20:51:30.834Z,28.78
2022-08-07T20:54:12.030Z,28.67
2022-08-07T20:56:45.958Z,28.67
2022-08-07T21:00:05.285Z,28.61
2022-08-07T21:02:38.272Z,28.57
2022-08-07T21:05:16.218Z,28.56
2022-08-07T21:07:49.590Z,28.50
2022-08-07T21:10:31.301Z,28.40
2022-08-07T21:13:03.385Z,28.27
2022-08-07T21:15:48.054Z,28.24
2022-08-07T21:18:33.755Z,28.21
2022-08-07T21:21:04.180Z,28.09
2022-08-07T21:24:22.653Z,28.11
2022-08-07T21:27:25.543Z,28.07
2022-08-07T21:30:11.303Z,28.07
2022-08-07T21:32:52.833Z,28.04
2022-08-07T21:36:06.770Z,28.01
2022-08-07T21:38:58.087Z,27.96
2022-08-07T21:41:52.100Z,27.91
2022-08-07T21:46:05.298Z,27.86
2022-08-07T21:48:42.652Z,27.81
2022-08-07T21:51:32.249Z,27.85
2022-08-07T21:54:25.019Z,27.77
2022-08-07T21:57:31.604Z,27.77
2022-08-07T22:00:11.325Z,27.74
2022-08-07T22:03:10.983Z,27.72
2022-08-07T22:05:52.690Z,27.65
2022-08-07T22:08:24.772Z,27.63
2022-08-07T22:11:03.871Z,27.64
2022-08-07T22:13:51.738Z,27.63
2022-08-07T22:16:43.879Z,27.59
2022-08-07T22:19:34.258Z,27.58
2022-08-07T22:22:28.703Z,27.56
2022-08-07T22:25:11.297Z,27.57
2022-08-07T22:28:07.788Z,27.47
2022-08-07T22:31:06.873Z,27.36
2022-08-07T22:33:56.219Z,27.20
2022-08-07T22:36:52.514Z,27.19
2022-08-07T22:40:05.145Z,27.22
2022-08-07T22:42:35.224Z,27.28
2022-08-07T22:45:11.091Z,27.28
2022-08-07T22:48:54.946Z,27.22
2022-08-07T22:52:13.757Z,27.12
2022-08-07T22:55:23.597Z,27.05
2022-08-07T23:34:24.134Z,27.20
2022-08-07T23:35:28.131Z,27.21
2022-08-07T23:38:42.154Z,27.22
2022-08-07T23:41:22.357Z,27.22
2022-08-07T23:44:24.781Z,27.23
2022-08-07T23:47:20.601Z,27.22
2022-08-07T23:50:20.950Z,27.18
2022-08-07T23:53:11.834Z,27.17
2022-08-07T23:56:11.720Z,27.12
